Time;durP1;ratioP1;P1;durP2;ratioP2;P2;SDS_P1;SDS_P2;PMS_P1;PMS_P2;Temp;Humidity;BMP_temperature;BMP_pressure;BME280_temperature;BME280_humidity;BME280_pressure;Samples;Min_cycle;Max_cycle;Signal;HPM_P1;HPM_P2
2022/12/04 00:02:44;;;;;;;33.50;21.10;;;22.20;57.90;;;;;;215564;1272;25530;-59
2022/12/04 00:07:48;;;;;;;36.70;22.30;;;22.10;58.40;;;;;;215562;1281;24250;-56
2022/12/04 00:12:54;;;;;;;33.90;21.50;;;22.00;58.70;;;;;;215770;1273;25360;-57
2022/12/04 00:18:00;;;;;;;32.50;20.60;;;21.90;59.00;;;;;;215496;1274;24243;-56
2022/12/04 00:23:04;;;;;;;35.00;22.50;;;21.90;59.10;;;;;;215436;1292;23839;-57
2022/12/04 00:28:08;;;;;;;36.00;21.90;;;21.90;59.40;;;;;;215521;1275;23845;-58
2022/12/04 00:33:13;;;;;;;35.00;21.90;;;21.80;59.60;;;;;;215452;1289;24243;-57
2022/12/04 00:38:17;;;;;;;34.20;21.50;;;21.80;59.80;;;;;;215380;1283;22592;-57
2022/12/04 00:43:22;;;;;;;32.50;22.00;;;21.70;59.90;;;;;;215685;1285;25360;-57
2022/12/04 00:48:26;;;;;;;35.60;22.80;;;21.80;60.00;;;;;;215637;1283;25211;-57
2022/12/04 00:53:32;;;;;;;33.70;21.30;;;21.70;60.00;;;;;;215920;1283;22464;-57
2022/12/04 00:58:37;;;;;;;31.00;22.30;;;21.70;60.20;;;;;;215557;1283;26467;-55
2022/12/04 01:03:45;;;;;;;32.10;20.80;;;21.70;60.30;;;;;;222794;1291;22173;-55
2022/12/04 01:08:50;;;;;;;32.70;21.40;;;21.70;60.50;;;;;;223885;1273;22077;-56
2022/12/04 01:13:55;;;;;;;33.30;22.00;;;21.60;60.50;;;;;;218861;1292;22465;-57
2022/12/04 01:19:00;;;;;;;34.00;21.90;;;21.70;60.50;;;;;;215855;1274;25365;-57
2022/12/04 01:24:06;;;;;;;33.70;22.30;;;21.70;60.80;;;;;;215535;1283;25224;-58
2022/12/04 01:29:10;;;;;;;36.60;23.50;;;21.60;61.10;;;;;;215587;1283;22466;-57
2022/12/04 01:34:17;;;;;;;32.50;22.90;;;21.60;61.10;;;;;;215348;1276;26572;-57
2022/12/04 01:39:21;;;;;;;32.00;21.90;;;21.60;60.90;;;;;;215618;1279;24227;-58
2022/12/04 01:44:25;;;;;;;33.20;21.50;;;21.50;60.80;;;;;;215651;1282;24415;-59
2022/12/04 01:49:42;;;;;;;31.30;21.60;;;21.50;60.70;;;;;;215445;1268;22465;-57
2022/12/04 01:54:50;;;;;;;31.00;21.30;;;21.40;60.30;;;;;;215634;1274;25452;-57
2022/12/04 02:00:09;;;;;;;30.50;20.80;;;21.40;60.60;;;;;;215468;1281;22521;-57
2022/12/04 02:05:18;;;;;;;30.60;20.90;;;21.40;60.60;;;;;;215345;1280;24276;-57
2022/12/04 02:10:30;;;;;;;30.20;19.60;;;21.30;60.40;;;;;;214997;1277;22462;-57
2022/12/04 02:16:02;;;;;;;30.30;20.40;;;21.30;60.10;;;;;;215242;1282;22698;-57
2022/12/04 02:21:22;;;;;;;30.00;19.80;;;21.20;60.50;;;;;;214934;1278;25349;-57
2022/12/04 02:26:51;;;;;;;28.20;19.60;;;21.20;60.50;;;;;;215169;1276;23876;-57
2022/12/04 02:32:18;;;;;;;27.20;18.50;;;21.20;60.40;;;;;;215278;1276;23860;-58
2022/12/04 02:37:42;;;;;;;28.00;18.90;;;21.10;60.50;;;;;;215062;1269;24288;-57
2022/12/04 02:42:48;;;;;;;25.30;17.40;;;21.10;60.30;;;;;;215308;1283;24080;-60
2022/12/04 02:47:53;;;;;;;29.10;18.00;;;21.30;60.20;;;;;;215108;1269;25148;-57
2022/12/04 02:53:12;;;;;;;26.10;17.00;;;21.70;59.50;;;;;;214932;1269;23830;-57
2022/12/04 02:58:26;;;;;;;23.30;16.90;;;22.00;59.10;;;;;;215315;1282;22480;-57
2022/12/04 03:03:33;;;;;;;25.50;17.00;;;22.10;58.60;;;;;;215206;1276;22462;-57
2022/12/04 03:08:48;;;;;;;22.30;16.30;;;22.30;58.40;;;;;;215219;1277;22733;-56
2022/12/04 03:14:15;;;;;;;25.60;18.40;;;22.40;58.10;;;;;;215578;1290;27638;-57
2022/12/04 03:19:26;;;;;;;24.10;17.20;;;22.40;57.60;;;;;;215525;1283;22952;-57
2022/12/04 03:24:40;;;;;;;24.00;16.80;;;22.50;57.50;;;;;;215626;1292;22691;-57
2022/12/04 03:29:51;;;;;;;23.50;16.50;;;22.60;57.20;;;;;;215556;1291;23239;-58
2022/12/04 03:35:12;;;;;;;24.90;17.00;;;22.60;57.20;;;;;;215647;1279;22946;-56
2022/12/04 03:40:20;;;;;;;22.90;16.80;;;22.70;57.70;;;;;;215638;1274;24308;-57
2022/12/04 03:45:35;;;;;;;22.40;16.40;;;22.70;56.80;;;;;;215606;1282;22715;-57
2022/12/04 03:50:54;;;;;;;20.80;15.60;;;22.80;56.70;;;;;;215543;1283;22467;-57
2022/12/04 03:56:17;;;;;;;21.90;16.00;;;22.90;56.60;;;;;;215581;1279;23070;-56
2022/12/04 04:01:27;;;;;;;22.30;16.00;;;22.90;56.80;;;;;;215304;1275;22540;-56
2022/12/04 04:06:41;;;;;;;21.40;15.60;;;22.90;56.70;;;;;;215295;1295;22513;-57
2022/12/04 04:11:52;;;;;;;22.00;15.40;;;23.00;56.20;;;;;;215689;1284;22810;-57
2022/12/04 04:28:01;;;;;;;19.20;14.20;;;23.10;56.20;;;;;;215499;1298;23897;-57
2022/12/04 04:33:15;;;;;;;21.20;15.50;;;23.10;56.10;;;;;;215699;1274;26571;-57
2022/12/04 04:38:33;;;;;;;22.50;15.30;;;23.00;56.20;;;;;;215569;1283;25370;-57
2022/12/04 04:44:05;;;;;;;20.60;15.10;;;22.90;56.50;;;;;;215369;1275;25282;-57
2022/12/04 04:49:13;;;;;;;20.00;13.60;;;22.80;56.70;;;;;;215575;1282;25649;-56
2022/12/04 04:54:18;;;;;;;20.60;14.30;;;22.70;58.10;;;;;;215685;1289;23985;-59
2022/12/04 04:59:22;;;;;;;21.30;15.20;;;22.60;57.10;;;;;;215305;1288;22686;-57
2022/12/04 05:04:26;;;;;;;19.40;14.60;;;22.50;56.90;;;;;;215667;1275;22705;-56
2022/12/04 05:09:31;;;;;;;20.20;15.00;;;22.40;57.60;;;;;;215690;1282;25370;-56
2022/12/04 05:14:48;;;;;;;19.50;14.50;;;22.30;57.80;;;;;;215590;1292;23881;-57
2022/12/04 05:19:53;;;;;;;22.10;14.60;;;22.20;58.00;;;;;;215412;1283;25359;-58
2022/12/04 05:24:58;;;;;;;20.30;15.60;;;22.10;58.10;;;;;;215485;1279;22747;-57
2022/12/04 05:30:03;;;;;;;19.70;13.90;;;22.00;58.50;;;;;;215593;1281;25291;-57
2022/12/04 05:35:08;;;;;;;18.90;14.10;;;22.00;58.30;;;;;;215354;1286;25273;-56
2022/12/04 05:40:14;;;;;;;18.60;14.40;;;21.90;58.50;;;;;;215530;1282;23350;-57
2022/12/04 05:45:18;;;;;;;19.40;14.60;;;21.80;58.40;;;;;;215656;1282;25198;-57
2022/12/04 05:50:25;;;;;;;19.40;13.80;;;21.80;58.30;;;;;;215613;1282;22528;-56
2022/12/04 05:55:28;;;;;;;20.50;14.80;;;21.70;58.70;;;;;;215591;1279;22459;-57
2022/12/04 06:00:32;;;;;;;19.90;14.30;;;21.70;59.10;;;;;;215556;1297;25283;-56
2022/12/04 06:05:36;;;;;;;22.00;14.70;;;21.60;58.80;;;;;;215322;1274;23898;-55
2022/12/04 06:10:40;;;;;;;18.40;14.00;;;21.60;59.00;;;;;;215508;1285;22448;-57
2022/12/04 06:15:44;;;;;;;17.60;13.30;;;21.50;59.30;;;;;;215526;1298;23849;-58
2022/12/04 06:20:48;;;;;;;19.30;14.20;;;21.40;59.10;;;;;;215545;1293;26458;-57
2022/12/04 06:25:52;;;;;;;22.30;14.30;;;21.40;59.10;;;;;;215726;1291;24246;-56
2022/12/04 06:31:05;;;;;;;18.20;13.30;;;21.40;59.20;;;;;;215396;1288;24247;-57
2022/12/04 06:36:15;;;;;;;19.10;13.70;;;21.50;59.80;;;;;;215537;1283;22615;-57
2022/12/04 06:41:22;;;;;;;19.50;13.30;;;21.90;58.90;;;;;;215344;1269;22705;-57
2022/12/04 06:46:29;;;;;;;16.20;11.80;;;22.20;58.20;;;;;;215473;1282;22690;-56
2022/12/04 06:51:36;;;;;;;17.30;12.60;;;22.40;58.00;;;;;;218088;1278;24253;-56
2022/12/04 06:56:40;;;;;;;17.20;12.80;;;22.50;57.60;;;;;;215527;1272;23907;-57
2022/12/04 07:01:48;;;;;;;16.70;12.70;;;22.60;57.00;;;;;;215433;1280;22725;-58
2022/12/04 07:06:53;;;;;;;17.20;13.00;;;22.60;56.90;;;;;;215414;1293;22454;-57
2022/12/04 07:11:58;;;;;;;16.50;12.60;;;22.70;56.60;;;;;;215591;1274;23972;-57
2022/12/04 07:17:05;;;;;;;18.20;12.80;;;22.70;56.30;;;;;;215594;1296;26455;-57
2022/12/04 07:22:10;;;;;;;16.20;12.40;;;22.80;56.30;;;;;;215257;1285;22961;-56
2022/12/04 07:27:14;;;;;;;18.40;13.30;;;22.90;56.30;;;;;;215705;1284;24027;-57
2022/12/04 07:32:20;;;;;;;16.90;13.00;;;22.90;56.10;;;;;;215520;1272;22529;-58
2022/12/04 07:37:27;;;;;;;19.50;13.20;;;22.90;56.00;;;;;;215429;1273;22656;-57
2022/12/04 07:42:34;;;;;;;17.10;12.40;;;23.00;56.30;;;;;;215400;1282;22457;-57
2022/12/04 07:47:38;;;;;;;17.40;12.50;;;23.00;56.40;;;;;;215538;1289;23326;-57
2022/12/04 07:52:41;;;;;;;15.80;11.80;;;23.00;56.50;;;;;;215396;1280;23044;-56
2022/12/04 07:57:45;;;;;;;16.90;12.60;;;23.10;55.80;;;;;;215689;1293;23830;-57
2022/12/04 08:02:49;;;;;;;16.80;12.50;;;23.10;55.70;;;;;;215586;1289;23931;-57
2022/12/04 08:07:53;;;;;;;15.60;11.50;;;23.20;55.70;;;;;;215571;1298;25237;-56
2022/12/04 08:12:57;;;;;;;18.40;11.80;;;23.20;55.70;;;;;;215571;1282;24269;-57
2022/12/04 08:18:01;;;;;;;15.60;11.60;;;23.20;55.70;;;;;;215535;1297;24180;-57
2022/12/04 08:23:11;;;;;;;15.70;11.10;;;23.30;55.80;;;;;;215560;1285;22520;-57
2022/12/04 08:28:21;;;;;;;18.30;12.60;;;23.20;56.20;;;;;;215512;1276;24317;-57
2022/12/04 08:33:35;;;;;;;17.60;11.90;;;23.20;55.90;;;;;;215170;1279;25517;-58
2022/12/04 08:38:44;;;;;;;14.40;11.40;;;23.10;56.10;;;;;;215388;1286;22727;-57
2022/12/04 08:43:54;;;;;;;17.30;12.30;;;23.00;56.20;;;;;;215200;1272;25305;-56
2022/12/04 08:49:00;;;;;;;18.80;12.10;;;22.90;56.40;;;;;;215541;1302;25340;-56
2022/12/04 08:54:20;;;;;;;15.40;11.50;;;22.70;56.60;;;;;;215588;1285;22567;-57
2022/12/04 08:59:55;;;;;;;15.40;11.50;;;22.60;57.30;;;;;;214338;1291;24314;-58
2022/12/04 09:05:18;;;;;;;20.20;12.00;;;22.50;57.30;;;;;;214686;1278;22472;-56
2022/12/04 09:10:28;;;;;;;20.50;12.40;;;22.50;58.00;;;;;;214551;1285;24250;-57
2022/12/04 09:15:43;;;;;;;19.70;11.90;;;22.40;57.70;;;;;;214718;1279;24410;-56
2022/12/04 09:21:00;;;;;;;15.40;11.70;;;22.30;57.60;;;;;;215323;1281;22562;-56
2022/12/04 09:26:28;;;;;;;16.70;11.70;;;22.30;58.00;;;;;;215441;1276;24253;-56
2022/12/04 09:31:35;;;;;;;16.30;11.00;;;22.30;57.90;;;;;;215250;1283;24847;-56
2022/12/04 09:36:41;;;;;;;17.40;11.00;;;22.30;57.80;;;;;;215243;1272;22574;-56
2022/12/04 09:42:06;;;;;;;20.30;12.00;;;22.30;58.20;;;;;;215553;1272;25300;-56
2022/12/04 09:47:18;;;;;;;20.90;11.70;;;22.30;57.70;;;;;;215480;1272;22709;-58
2022/12/04 09:52:44;;;;;;;43.70;19.40;;;22.30;57.20;;;;;;215475;1272;25390;-58
2022/12/04 09:57:54;;;;;;;185.40;65.10;;;22.20;58.60;;;;;;215182;1276;22472;-56
2022/12/04 10:03:11;;;;;;;307.80;101.70;;;22.20;59.20;;;;;;215252;1296;23844;-56
2022/12/04 10:08:37;;;;;;;320.70;103.20;;;22.20;59.30;;;;;;215486;1283;24560;-56
2022/12/04 10:14:01;;;;;;;273.90;92.10;;;22.20;59.10;;;;;;215407;1279;23752;-55
2022/12/04 10:19:46;;;;;;;249.00;80.80;;;22.10;59.50;;;;;;215547;1273;25751;-57
2022/12/04 10:25:20;;;;;;;209.20;74.30;;;22.20;59.50;;;;;;215111;1272;454192;-56
2022/12/04 10:30:49;;;;;;;218.70;71.00;;;22.20;58.70;;;;;;215457;1280;22467;-56
2022/12/04 10:36:00;;;;;;;178.20;64.10;;;22.00;59.10;;;;;;215390;1283;22664;-57
2022/12/04 10:41:42;;;;;;;173.20;65.30;;;22.00;58.30;;;;;;215492;1279;23192;-56
2022/12/04 10:46:46;;;;;;;176.80;60.70;;;22.10;59.00;;;;;;215611;1280;22619;-56
2022/12/04 10:52:26;;;;;;;155.20;57.50;;;22.20;59.70;;;;;;215295;1274;24396;-58
2022/12/04 10:57:57;;;;;;;147.60;55.10;;;22.20;58.80;;;;;;215734;1272;22550;-56
2022/12/04 11:03:26;;;;;;;154.40;55.80;;;22.10;58.80;;;;;;215527;1273;22471;-57
2022/12/04 11:08:37;;;;;;;137.50;51.00;;;22.20;58.80;;;;;;215476;1283;25267;-56
2022/12/04 11:13:44;;;;;;;124.20;50.60;;;22.20;58.70;;;;;;215563;1273;23873;-58
2022/12/04 11:19:20;;;;;;;133.10;53.40;;;22.30;58.80;;;;;;215385;1274;24413;-56
2022/12/04 11:24:38;;;;;;;132.60;50.30;;;22.30;58.70;;;;;;215155;1283;22734;-57
2022/12/04 11:29:49;;;;;;;114.00;46.30;;;22.20;58.60;;;;;;215482;1273;22469;-56
2022/12/04 11:35:17;;;;;;;115.20;45.90;;;22.20;58.50;;;;;;215339;1279;22464;-58
2022/12/04 11:40:27;;;;;;;104.50;45.10;;;22.30;58.80;;;;;;215556;1274;23050;-58
2022/12/04 11:45:36;;;;;;;107.60;42.70;;;22.40;58.10;;;;;;215666;1274;24280;-57
2022/12/04 11:51:26;;;;;;;99.20;41.30;;;22.40;58.00;;;;;;215378;1266;22466;-59
2022/12/04 11:57:03;;;;;;;100.40;40.60;;;22.30;58.50;;;;;;215433;1274;24275;-57
2022/12/04 12:02:50;;;;;;;99.40;41.50;;;22.30;58.10;;;;;;215520;1279;25091;-56
2022/12/04 12:08:37;;;;;;;83.60;37.20;;;22.30;58.20;;;;;;215481;1273;25358;-56
2022/12/04 12:14:24;;;;;;;89.10;37.60;;;22.20;58.50;;;;;;215570;1278;24404;-58
2022/12/04 12:20:11;;;;;;;87.40;36.50;;;22.10;58.80;;;;;;214491;1275;22475;-57
2022/12/04 12:26:08;;;;;;;76.80;35.90;;;22.10;58.00;;;;;;214608;1286;22459;-58
2022/12/04 12:32:16;;;;;;;76.50;34.20;;;22.00;59.10;;;;;;214468;1278;25232;-57
2022/12/04 12:37:52;;;;;;;79.20;35.50;;;22.00;59.40;;;;;;214737;1280;24177;-58
2022/12/04 12:43:29;;;;;;;79.10;32.20;;;22.00;59.50;;;;;;214642;1272;22718;-59
2022/12/04 12:49:12;;;;;;;77.50;32.80;;;22.00;59.60;;;;;;214861;1282;26672;-58
2022/12/04 12:54:38;;;;;;;75.80;33.00;;;22.00;59.50;;;;;;215561;1274;24359;-57
2022/12/04 13:00:17;;;;;;;66.00;31.80;;;22.00;59.60;;;;;;215574;1274;24219;-58
2022/12/04 13:05:59;;;;;;;70.40;33.40;;;22.00;59.80;;;;;;214718;1279;25543;-57
2022/12/04 13:11:23;;;;;;;64.30;31.30;;;22.10;59.10;;;;;;214533;1278;22807;-58
2022/12/04 13:17:16;;;;;;;63.80;30.00;;;22.00;58.90;;;;;;214644;1280;23564;-57
2022/12/04 13:23:41;;;;;;;64.60;29.00;;;21.90;58.80;;;;;;214611;1288;22595;-57
2022/12/04 13:29:59;;;;;;;54.80;28.00;;;21.80;59.30;;;;;;214485;1279;22582;-57
2022/12/04 13:35:42;;;;;;;56.40;29.10;;;21.70;58.60;;;;;;213627;1288;22482;-56
2022/12/04 13:41:38;;;;;;;54.60;28.30;;;21.60;58.20;;;;;;215253;1276;24218;-56
2022/12/04 13:47:13;;;;;;;53.00;27.50;;;21.60;58.10;;;;;;214407;1289;22503;-57
2022/12/04 13:52:49;;;;;;;54.40;28.30;;;21.50;58.50;;;;;;214455;1288;24541;-56
2022/12/04 13:58:32;;;;;;;49.50;26.30;;;21.50;58.10;;;;;;214005;1287;24558;-56
2022/12/04 14:03:54;;;;;;;48.00;25.90;;;21.40;58.00;;;;;;213800;1278;22471;-57
2022/12/04 14:09:23;;;;;;;47.50;24.80;;;21.40;57.90;;;;;;213998;1289;23860;-57
2022/12/04 14:15:18;;;;;;;48.80;25.00;;;21.40;57.80;;;;;;214452;1285;23855;-56
2022/12/04 14:20:29;;;;;;;45.90;24.50;;;21.30;57.70;;;;;;214501;1283;24230;-56
2022/12/04 14:25:56;;;;;;;41.20;23.10;;;21.30;57.70;;;;;;214629;1278;23059;-56
2022/12/04 14:31:57;;;;;;;42.90;23.80;;;21.30;57.70;;;;;;214291;1294;25326;-56
2022/12/04 14:37:06;;;;;;;43.50;23.10;;;21.30;57.60;;;;;;214726;1286;22627;-57
2022/12/04 14:42:38;;;;;;;42.30;23.00;;;21.20;57.50;;;;;;214268;1286;22465;-57
2022/12/04 14:48:23;;;;;;;39.60;22.00;;;21.20;57.40;;;;;;214819;1279;23861;-56
2022/12/04 14:53:46;;;;;;;38.80;20.30;;;21.30;57.10;;;;;;214677;1279;25953;-57
2022/12/04 14:58:55;;;;;;;36.40;21.70;;;21.50;56.60;;;;;;214671;1286;25874;-57
2022/12/04 15:04:22;;;;;;;32.60;19.50;;;21.60;56.00;;;;;;214681;1279;22680;-55
2022/12/04 15:15:05;;;;;;;33.30;19.70;;;21.80;55.30;;;;;;215712;1289;22589;-57
2022/12/04 15:20:18;;;;;;;35.20;19.70;;;21.90;55.00;;;;;;215718;1276;22448;-57
2022/12/04 15:25:33;;;;;;;32.90;20.10;;;22.00;55.20;;;;;;215644;1283;23860;-57
2022/12/04 15:30:49;;;;;;;31.30;18.60;;;22.10;54.60;;;;;;215628;1274;24165;-56
2022/12/04 15:36:06;;;;;;;31.80;18.30;;;22.20;54.40;;;;;;215687;1274;22833;-56
2022/12/04 15:41:32;;;;;;;31.00;18.20;;;22.30;54.70;;;;;;215581;1274;26476;-57
2022/12/04 15:46:42;;;;;;;30.20;18.60;;;22.30;53.90;;;;;;215462;1283;22540;-56
2022/12/04 15:51:49;;;;;;;27.60;17.10;;;22.40;54.10;;;;;;215653;1295;22509;-57
2022/12/04 15:57:25;;;;;;;35.20;19.30;;;22.40;53.60;;;;;;215379;1282;22500;-56
2022/12/04 16:02:43;;;;;;;28.80;17.90;;;22.40;53.00;;;;;;215642;1266;25595;-58
2022/12/04 16:07:54;;;;;;;28.30;16.90;;;22.50;53.30;;;;;;215634;1290;24170;-57
2022/12/04 16:13:04;;;;;;;26.90;17.80;;;22.50;53.20;;;;;;215634;1277;25612;-58
2022/12/04 16:18:18;;;;;;;27.90;18.30;;;22.50;52.80;;;;;;215669;1273;22496;-56
2022/12/04 16:23:36;;;;;;;29.70;17.50;;;22.60;52.50;;;;;;215660;1276;22459;-56
2022/12/04 16:28:47;;;;;;;26.80;16.90;;;22.60;52.60;;;;;;215676;1279;25597;-57
2022/12/04 16:33:53;;;;;;;27.20;17.40;;;22.60;52.10;;;;;;215618;1274;25496;-57
2022/12/04 16:39:00;;;;;;;26.70;18.10;;;22.60;51.90;;;;;;215690;1274;24274;-56
2022/12/04 16:44:12;;;;;;;25.10;16.70;;;22.60;51.50;;;;;;215409;1283;24255;-56
2022/12/04 16:49:18;;;;;;;24.50;15.80;;;22.70;51.40;;;;;;215632;1281;22588;-56
2022/12/04 16:54:28;;;;;;;25.30;17.20;;;22.70;51.20;;;;;;215687;1280;24606;-58
2022/12/04 16:59:43;;;;;;;23.70;16.50;;;22.80;51.00;;;;;;215450;1283;25354;-60
2022/12/04 17:04:48;;;;;;;24.90;17.30;;;22.80;50.70;;;;;;215614;1283;25457;-57
2022/12/04 17:10:00;;;;;;;22.50;15.00;;;22.80;50.50;;;;;;215686;1274;24035;-57
2022/12/04 17:15:09;;;;;;;22.40;15.10;;;22.80;50.30;;;;;;215643;1279;23592;-56
2022/12/04 17:20:20;;;;;;;23.40;16.00;;;22.90;50.10;;;;;;215356;1291;24006;-57
2022/12/04 17:25:37;;;;;;;;;;;22.90;50.00;;;;;;215607;1283;22436;-56
2022/12/04 17:30:48;;;;;;;22.60;14.80;;;22.90;49.80;;;;;;215634;1283;22546;-56
2022/12/04 17:35:53;;;;;;;21.80;14.60;;;22.90;49.70;;;;;;215580;1275;22496;-56
2022/12/04 17:41:03;;;;;;;21.50;14.30;;;23.00;49.60;;;;;;215727;1281;24297;-56
2022/12/04 17:46:42;;;;;;;20.70;15.10;;;23.00;49.50;;;;;;215585;1282;22809;-56
2022/12/04 17:51:46;;;;;;;22.60;15.90;;;23.00;49.60;;;;;;215603;1279;25926;-58
2022/12/04 17:56:54;;;;;;;20.60;14.00;;;23.00;49.10;;;;;;215678;1274;22494;-57
2022/12/04 18:02:09;;;;;;;20.40;14.80;;;23.00;49.00;;;;;;215564;1291;22746;-56
2022/12/04 18:07:20;;;;;;;19.90;14.40;;;23.10;49.20;;;;;;215262;1282;24232;-56
2022/12/04 18:12:26;;;;;;;20.00;14.90;;;23.10;48.70;;;;;;215689;1282;24316;-57
2022/12/04 18:17:34;;;;;;;20.60;14.30;;;23.10;48.60;;;;;;215706;1266;23724;-57
2022/12/04 18:22:40;;;;;;;21.00;14.70;;;23.10;48.50;;;;;;215649;1269;22616;-56
2022/12/04 18:27:44;;;;;;;18.60;13.80;;;23.10;48.70;;;;;;215682;1280;24244;-54
2022/12/04 18:33:01;;;;;;;18.20;13.20;;;23.20;48.30;;;;;;215589;1269;25445;-56
2022/12/04 18:38:07;;;;;;;19.70;14.50;;;23.20;48.20;;;;;;215659;1274;23883;-56
2022/12/04 18:43:21;;;;;;;19.50;14.50;;;23.20;48.10;;;;;;215600;1279;25652;-55
2022/12/04 18:48:35;;;;;;;20.30;13.30;;;23.10;48.10;;;;;;215601;1281;25211;-56
2022/12/04 18:53:41;;;;;;;20.00;14.00;;;23.00;48.30;;;;;;215578;1284;24291;-57
2022/12/04 18:58:49;;;;;;;18.70;13.80;;;22.90;48.40;;;;;;215663;1289;25417;-57
2022/12/04 19:03:57;;;;;;;17.80;13.20;;;22.80;48.60;;;;;;215593;1279;23641;-56
2022/12/04 19:09:06;;;;;;;20.00;14.00;;;22.70;48.60;;;;;;215765;1288;22694;-56
2022/12/04 19:14:22;;;;;;;22.60;14.20;;;22.50;48.60;;;;;;215559;1275;24870;-56
2022/12/04 19:19:27;;;;;;;21.30;13.90;;;22.50;50.10;;;;;;215702;1273;22428;-55
2022/12/04 19:24:34;;;;;;;19.30;13.70;;;22.40;50.70;;;;;;215696;1283;22481;-57
2022/12/04 19:29:49;;;;;;;27.10;14.70;;;22.30;52.50;;;;;;215570;1292;22474;-57
2022/12/04 19:35:36;;;;;;;;;;;;;;;;;;;;;
2022/12/04 19:40:48;;;;;;;;;;;22.10;54.30;;;;;;215538;1283;22449;-58
2022/12/04 19:45:59;;;;;;;23.60;13.60;;;22.00;55.00;;;;;;215680;1281;22862;-60
2022/12/04 19:51:15;;;;;;;19.30;13.40;;;22.00;54.90;;;;;;215305;1266;22491;-57
2022/12/04 19:56:30;;;;;;;20.70;13.50;;;22.00;57.60;;;;;;215429;1283;22458;-58
2022/12/04 20:01:51;;;;;;;27.00;13.50;;;22.00;57.90;;;;;;215474;1266;22472;-58
2022/12/04 20:07:03;;;;;;;23.40;13.50;;;21.90;56.60;;;;;;215548;1266;22464;-57
2022/12/04 20:12:07;;;;;;;26.70;13.10;;;21.90;57.30;;;;;;215695;1273;25414;-56
2022/12/04 20:17:13;;;;;;;27.80;13.20;;;21.80;57.70;;;;;;215761;1280;24174;-58
2022/12/04 20:22:19;;;;;;;19.50;13.40;;;21.80;59.10;;;;;;215724;1274;23875;-57
2022/12/04 20:27:30;;;;;;;22.60;14.00;;;21.60;60.60;;;;;;215536;1272;24300;-56
2022/12/04 20:32:35;;;;;;;24.00;14.20;;;21.50;60.10;;;;;;215687;1283;24185;-57
2022/12/04 20:37:41;;;;;;;23.20;13.80;;;21.50;59.90;;;;;;215390;1269;24448;-59
2022/12/04 20:42:49;;;;;;;22.90;15.20;;;21.40;59.70;;;;;;216314;1273;24246;-59
2022/12/04 20:47:57;;;;;;;19.50;13.80;;;21.40;60.70;;;;;;215569;1279;24256;-59
2022/12/04 20:53:08;;;;;;;19.80;14.00;;;21.40;60.30;;;;;;215642;1274;24069;-57
2022/12/04 20:58:12;;;;;;;22.70;12.90;;;21.40;61.50;;;;;;215524;1282;23834;-57
2022/12/04 21:03:19;;;;;;;21.10;13.80;;;21.30;61.50;;;;;;215594;1297;25540;-57
2022/12/04 21:19:26;;;;;;;18.20;13.00;;;21.30;63.00;;;;;;215273;1297;25528;-57
2022/12/04 21:24:37;;;;;;;21.40;13.10;;;21.20;62.70;;;;;;215434;1279;26480;-57
2022/12/04 21:29:53;;;;;;;17.30;12.30;;;21.30;61.90;;;;;;215395;1267;22606;-57
2022/12/04 21:35:04;;;;;;;19.20;13.10;;;21.60;61.50;;;;;;215500;1279;24249;-58
2022/12/04 21:40:09;;;;;;;19.80;12.80;;;21.90;60.70;;;;;;215793;1265;22453;-58
2022/12/04 21:45:19;;;;;;;17.60;12.30;;;22.10;60.40;;;;;;215505;1286;22825;-59
2022/12/04 21:50:23;;;;;;;17.70;12.20;;;22.30;60.20;;;;;;215476;1274;22447;-58
2022/12/04 21:55:27;;;;;;;19.00;12.20;;;22.40;60.30;;;;;;215258;1277;22471;-56
2022/12/04 22:00:43;;;;;;;17.10;12.70;;;22.50;60.80;;;;;;216308;1275;25242;-55
2022/12/04 22:05:59;;;;;;;17.50;12.60;;;22.40;57.10;;;;;;215550;1274;22572;-57
2022/12/04 22:11:05;;;;;;;16.70;12.10;;;22.40;59.70;;;;;;215460;1276;22967;-57
2022/12/04 22:16:14;;;;;;;16.70;11.70;;;22.40;59.80;;;;;;215649;1276;24305;-56
2022/12/04 22:21:18;;;;;;;20.90;12.80;;;22.30;60.20;;;;;;215521;1282;22582;-59
2022/12/04 22:26:22;;;;;;;23.60;12.30;;;22.50;62.50;;;;;;214740;1283;1240369;-58
2022/12/04 22:31:39;;;;;;;17.00;11.50;;;22.60;61.90;;;;;;215541;1275;23840;-58
2022/12/04 22:36:51;;;;;;;16.00;11.00;;;22.60;61.10;;;;;;215548;1281;24345;-57
2022/12/04 22:42:03;;;;;;;17.60;12.10;;;22.70;62.00;;;;;;215520;1277;22463;-58
2022/12/04 22:47:12;;;;;;;20.30;12.00;;;22.90;61.00;;;;;;215500;1275;23266;-58
2022/12/04 22:52:18;;;;;;;16.80;11.30;;;23.00;61.10;;;;;;215220;1278;24273;-58
2022/12/04 22:57:25;;;;;;;16.80;11.30;;;23.10;61.00;;;;;;215219;1286;24283;-59
2022/12/04 23:02:32;;;;;;;15.10;11.20;;;23.10;60.80;;;;;;215533;1297;23652;-58
2022/12/04 23:07:39;;;;;;;17.50;11.90;;;23.10;60.60;;;;;;215686;1276;25933;-56
2022/12/04 23:12:46;;;;;;;18.20;11.30;;;23.10;61.10;;;;;;215457;1282;24262;-57
2022/12/04 23:17:58;;;;;;;16.10;10.80;;;23.00;61.30;;;;;;215262;1277;24259;-59
2022/12/04 23:23:03;;;;;;;16.90;11.60;;;22.90;61.30;;;;;;215261;1286;22527;-58
2022/12/04 23:28:13;;;;;;;17.20;11.90;;;22.90;61.90;;;;;;215527;1282;22478;-60
2022/12/04 23:33:17;;;;;;;17.00;11.30;;;22.80;63.00;;;;;;215652;1284;24284;-58
2022/12/04 23:38:23;;;;;;;15.90;11.50;;;22.70;62.60;;;;;;215744;1283;22587;-56
2022/12/04 23:43:28;;;;;;;16.20;11.00;;;22.60;62.90;;;;;;215520;1280;24304;-59
2022/12/04 23:48:32;;;;;;;15.40;10.80;;;22.60;63.20;;;;;;215495;1276;25537;-58
2022/12/04 23:53:41;;;;;;;16.90;10.70;;;22.50;62.10;;;;;;215718;1286;25562;-58
2022/12/04 23:58:47;;;;;;;14.30;9.80;;;22.40;63.10;;;;;;215550;1277;25533;-57
